Time;durP1;ratioP1;P1;durP2;ratioP2;P2;SDS_P1;SDS_P2;PMS_P1;PMS_P2;Temp;Humidity;BMP_temperature;BMP_pressure;BME280_temperature;BME280_humidity;BME280_pressure;Samples;Min_cycle;Max_cycle;Signal;HPM_P1;HPM_P2
2022/04/17 00:01:12;;;;;;;37.00;13.82;;;;;;;;;;6194920;28;20046;-60
2022/04/17 00:04:14;;;;;;;33.40;13.60;;;;;;;;;;6194692;28;20057;-61
2022/04/17 00:07:15;;;;;;;;;;;;;;;;;;6202437;28;20058;-60
2022/04/17 00:10:16;;;;;;;31.85;12.95;;;;;;;;;;6193932;28;20012;-61
2022/04/17 00:13:17;;;;;;;29.17;12.50;;;;;;;;;;6179244;28;20190;-60
2022/04/17 00:16:18;;;;;;;27.65;11.43;;;;;;;;;;6196934;28;20078;-60
2022/04/17 00:19:18;;;;;;;30.05;11.75;;;;;;;;;;6192605;28;20108;-57
2022/04/17 00:22:19;;;;;;;25.85;10.93;;;;;;;;;;6193315;28;20108;-58
2022/04/17 00:25:20;;;;;;;26.80;10.40;;;;;;;;;;6195678;28;20058;-58
2022/04/17 00:28:21;;;;;;;32.42;11.63;;;;;;;;;;6194836;28;20486;-58
2022/04/17 00:31:23;;;;;;;26.73;10.27;;;;;;;;;;6195280;28;20074;-61
2022/04/17 00:34:25;;;;;;;33.20;12.02;;;;;;;;;;6194759;28;20050;-61
2022/04/17 00:37:26;;;;;;;32.38;11.25;;;;;;;;;;6194080;28;20498;-61
2022/04/17 00:40:26;;;;;;;34.85;11.98;;;;;;;;;;6194684;28;20054;-61
2022/04/17 00:43:30;;;;;;;33.33;12.23;;;;;;;;;;6196058;28;20129;-61
2022/04/17 00:46:30;;;;;;;31.55;11.73;;;;;;;;;;6195431;28;20050;-61
2022/04/17 00:49:31;;;;;;;29.60;11.98;;;;;;;;;;6192854;28;20148;-61
2022/04/17 00:52:32;;;;;;;33.22;11.80;;;;;;;;;;6194121;28;20046;-61
2022/04/17 00:55:34;;;;;;;37.47;10.88;;;;;;;;;;6194294;28;20406;-61
2022/04/17 00:58:37;;;;;;;31.73;11.80;;;;;;;;;;6193808;28;20069;-61
2022/04/17 01:01:38;;;;;;;30.23;11.73;;;;;;;;;;6194413;28;20105;-61
2022/04/17 01:04:39;;;;;;;29.00;11.48;;;;;;;;;;6179026;28;20055;-61
2022/04/17 01:07:40;;;;;;;31.45;11.73;;;;;;;;;;6180278;28;20536;-61
2022/04/17 01:10:41;;;;;;;28.83;10.63;;;;;;;;;;6193350;28;20077;-61
2022/04/17 01:13:42;;;;;;;33.45;11.77;;;;;;;;;;6192555;28;20050;-61
2022/04/17 01:16:43;;;;;;;25.90;11.05;;;;;;;;;;6193042;28;20616;-60
2022/04/17 01:19:44;;;;;;;31.52;12.23;;;;;;;;;;6192196;28;20061;-61
2022/04/17 01:22:48;;;;;;;28.88;11.38;;;;;;;;;;6194914;28;20073;-61
2022/04/17 01:29:10;;;;;;;28.02;12.52;;;;;;;;;;6191975;28;20050;-61
2022/04/17 01:32:11;;;;;;;29.27;12.25;;;;;;;;;;6191660;28;20382;-61
2022/04/17 01:35:11;;;;;;;34.85;13.48;;;;;;;;;;6193614;28;20125;-61
2022/04/17 01:38:12;;;;;;;32.47;13.13;;;;;;;;;;6194318;28;20137;-61
2022/04/17 01:41:15;;;;;;;35.03;13.77;;;;;;;;;;6193221;28;20078;-61
2022/04/17 01:44:16;;;;;;;37.35;16.65;;;;;;;;;;6193036;28;20544;-61
2022/04/17 01:47:17;;;;;;;44.22;17.52;;;;;;;;;;6194122;28;20120;-61
2022/04/17 01:50:17;;;;;;;43.22;15.13;;;;;;;;;;6192699;28;20050;-61
2022/04/17 01:53:18;;;;;;;39.72;13.18;;;;;;;;;;6194633;28;20135;-61
2022/04/17 01:56:19;;;;;;;31.73;13.15;;;;;;;;;;6187881;28;20053;-61
2022/04/17 01:59:21;;;;;;;38.50;13.85;;;;;;;;;;6183806;28;20415;-61
2022/04/17 02:02:21;;;;;;;42.95;14.98;;;;;;;;;;6193073;28;20042;-61
2022/04/17 02:05:22;;;;;;;45.75;16.02;;;;;;;;;;6193535;28;20566;-61
2022/04/17 02:08:23;;;;;;;43.45;15.95;;;;;;;;;;6192500;28;20050;-61
2022/04/17 02:11:25;;;;;;;38.00;14.73;;;;;;;;;;6185011;28;20693;-61
2022/04/17 02:14:26;;;;;;;36.08;14.02;;;;;;;;;;6192146;28;20078;-61
2022/04/17 02:17:26;;;;;;;41.17;15.30;;;;;;;;;;6194200;28;20054;-61
2022/04/17 02:20:27;;;;;;;36.90;14.48;;;;;;;;;;6191864;28;20466;-61
2022/04/17 02:23:29;;;;;;;42.63;15.05;;;;;;;;;;6193676;28;20149;-61
2022/04/17 02:26:30;;;;;;;34.78;14.40;;;;;;;;;;6191960;28;20050;-61
2022/04/17 02:29:33;;;;;;;44.72;15.25;;;;;;;;;;6193045;28;20133;-61
2022/04/17 02:32:33;;;;;;;42.95;17.05;;;;;;;;;;6192805;28;20046;-61
2022/04/17 02:35:34;;;;;;;39.50;14.05;;;;;;;;;;6194024;28;20144;-62
2022/04/17 02:38:35;;;;;;;47.15;16.33;;;;;;;;;;6192825;28;20078;-61
2022/04/17 02:41:36;;;;;;;42.10;14.60;;;;;;;;;;6191119;28;20516;-62
2022/04/17 02:44:36;;;;;;;41.70;15.88;;;;;;;;;;6201417;28;20112;-62
2022/04/17 02:47:43;;;;;;;42.30;16.02;;;;;;;;;;6192561;28;20134;-62
2022/04/17 02:50:43;;;;;;;40.40;15.20;;;;;;;;;;6187849;28;20113;-59
2022/04/17 02:53:44;;;;;;;41.75;16.67;;;;;;;;;;6189253;28;20056;-61
2022/04/17 02:56:46;;;;;;;41.78;15.98;;;;;;;;;;6192246;28;20054;-62
2022/04/17 02:59:46;;;;;;;51.60;17.83;;;;;;;;;;6191878;28;20419;-61
2022/04/17 03:06:08;;;;;;;41.88;16.55;;;;;;;;;;6189023;28;20054;-60
2022/04/17 03:09:09;;;;;;;39.30;16.25;;;;;;;;;;6186396;28;20049;-61
2022/04/17 03:12:09;;;;;;;47.20;16.33;;;;;;;;;;6191807;28;20484;-61
2022/04/17 03:15:10;;;;;;;45.17;15.48;;;;;;;;;;6195788;28;20049;-61
2022/04/17 03:18:11;;;;;;;42.33;17.48;;;;;;;;;;6197339;28;20481;-61
2022/04/17 03:21:11;;;;;;;39.08;15.57;;;;;;;;;;6195263;28;20100;-61
2022/04/17 03:24:12;;;;;;;41.45;15.23;;;;;;;;;;6182290;28;20145;-61
2022/04/17 03:27:13;;;;;;;43.53;15.02;;;;;;;;;;6188751;28;20112;-61
2022/04/17 03:30:17;;;;;;;38.03;15.15;;;;;;;;;;6172561;28;20092;-61
2022/04/17 03:33:18;;;;;;;42.28;15.32;;;;;;;;;;6187745;28;20046;-61
2022/04/17 03:36:19;;;;;;;44.60;17.15;;;;;;;;;;6196677;28;20074;-61
2022/04/17 03:39:19;;;;;;;46.00;17.60;;;;;;;;;;6197325;28;20057;-61
2022/04/17 03:42:21;;;;;;;40.17;17.33;;;;;;;;;;6195809;28;20081;-61
2022/04/17 03:45:22;;;;;;;47.95;19.25;;;;;;;;;;6196247;28;20058;-62
2022/04/17 03:48:23;;;;;;;50.58;17.60;;;;;;;;;;6196779;28;20482;-61
2022/04/17 03:51:23;;;;;;;45.20;17.60;;;;;;;;;;6195743;28;20050;-61
2022/04/17 03:54:24;;;;;;;53.75;19.45;;;;;;;;;;6197105;28;20158;-61
2022/04/17 03:57:25;;;;;;;41.92;17.90;;;;;;;;;;6186614;28;20047;-62
2022/04/17 04:00:25;;;;;;;47.38;18.45;;;;;;;;;;6196520;28;20077;-62
2022/04/17 04:03:26;;;;;;;58.65;21.00;;;;;;;;;;6183421;28;20116;-61
2022/04/17 04:06:27;;;;;;;50.42;20.08;;;;;;;;;;6194887;28;20089;-62
2022/04/17 04:09:28;;;;;;;55.55;21.10;;;;;;;;;;6196317;28;20081;-61
2022/04/17 04:12:28;;;;;;;55.88;20.98;;;;;;;;;;6194158;28;20073;-59
2022/04/17 04:15:29;;;;;;;57.25;23.45;;;;;;;;;;6193913;28;20668;-61
2022/04/17 04:18:29;;;;;;;55.55;21.05;;;;;;;;;;6202428;28;20081;-61
2022/04/17 04:21:30;;;;;;;53.63;21.25;;;;;;;;;;6185469;28;20079;-60
2022/04/17 04:24:31;;;;;;;55.28;23.45;;;;;;;;;;6195805;28;20046;-61
2022/04/17 04:30:51;;;;;;;61.40;24.40;;;;;;;;;;6199209;28;20462;-61
2022/04/17 04:33:51;;;;;;;57.13;23.60;;;;;;;;;;6193565;28;20042;-60
2022/04/17 04:36:52;;;;;;;58.05;22.67;;;;;;;;;;6194990;28;20145;-61
2022/04/17 04:39:52;;;;;;;56.08;22.25;;;;;;;;;;6196044;28;20140;-62
2022/04/17 04:43:00;;;;;;;64.97;23.90;;;;;;;;;;6194394;28;20137;-61
2022/04/17 04:46:07;;;;;;;53.38;23.02;;;;;;;;;;6183506;28;20505;-61
2022/04/17 04:52:27;;;;;;;59.70;25.38;;;;;;;;;;6185344;28;20054;-61
2022/04/17 04:55:28;;;;;;;61.25;24.38;;;;;;;;;;6194803;28;20149;-60
2022/04/17 04:58:29;;;;;;;108.55;31.55;;;;;;;;;;6187728;28;20072;-61
2022/04/17 05:01:30;;;;;;;60.55;19.50;;;;;;;;;;6194899;28;20511;-62
2022/04/17 05:04:32;;;;;;;56.03;23.15;;;;;;;;;;6190572;28;20147;-61
2022/04/17 05:07:34;;;;;;;65.47;25.70;;;;;;;;;;6194675;28;20062;-61
2022/04/17 05:10:34;;;;;;;115.25;30.98;;;;;;;;;;6189629;28;20137;-59
2022/04/17 05:13:35;;;;;;;54.90;19.42;;;;;;;;;;6188503;28;20049;-61
2022/04/17 05:16:36;;;;;;;53.45;20.38;;;;;;;;;;6190080;28;20062;-61
2022/04/17 05:19:39;;;;;;;98.03;26.48;;;;;;;;;;6184813;28;20128;-62
2022/04/17 05:22:40;;;;;;;94.10;25.25;;;;;;;;;;6180565;28;20047;-62
2022/04/17 05:25:41;;;;;;;57.50;19.90;;;;;;;;;;6194201;28;20092;-60
2022/04/17 05:28:41;;;;;;;55.83;19.75;;;;;;;;;;6191598;28;20053;-61
2022/04/17 05:31:42;;;;;;;77.57;25.92;;;;;;;;;;6194890;28;20086;-60
2022/04/17 05:34:42;;;;;;;53.95;19.90;;;;;;;;;;6192032;28;20054;-60
2022/04/17 05:37:44;;;;;;;53.50;19.30;;;;;;;;;;6192375;28;20532;-61
2022/04/17 05:40:51;;;;;;;57.38;21.63;;;;;;;;;;6194297;28;20054;-61
2022/04/17 05:43:52;;;;;;;76.85;24.98;;;;;;;;;;6191065;28;20047;-60
2022/04/17 05:46:56;;;;;;;55.83;21.02;;;;;;;;;;6187381;28;20061;-60
2022/04/17 05:49:58;;;;;;;54.28;20.60;;;;;;;;;;6194010;28;20058;-60
2022/04/17 05:52:59;;;;;;;71.50;25.20;;;;;;;;;;6192818;28;20488;-61
2022/04/17 05:56:00;;;;;;;59.17;22.45;;;;;;;;;;6187873;28;20050;-61
2022/04/17 05:59:01;;;;;;;59.47;21.52;;;;;;;;;;6193815;28;20398;-60
2022/04/17 06:02:03;;;;;;;54.38;20.27;;;;;;;;;;6185971;28;20043;-60
2022/04/17 06:05:05;;;;;;;53.90;20.20;;;;;;;;;;6173878;28;20073;-62
2022/04/17 06:08:06;;;;;;;54.88;21.13;;;;;;;;;;6192357;28;20221;-61
2022/04/17 06:11:07;;;;;;;52.92;21.33;;;;;;;;;;6194177;28;20046;-61
2022/04/17 06:14:07;;;;;;;58.97;21.98;;;;;;;;;;6190210;28;20084;-61
2022/04/17 06:17:10;;;;;;;56.90;23.75;;;;;;;;;;6192790;28;20053;-61
2022/04/17 06:20:13;;;;;;;;;;;;;;;;;;6192234;28;20058;-61
2022/04/17 06:23:14;;;;;;;58.28;22.70;;;;;;;;;;6191495;28;20354;-62
2022/04/17 06:26:14;;;;;;;51.55;20.73;;;;;;;;;;6191417;28;20141;-62
2022/04/17 06:29:15;;;;;;;52.78;21.67;;;;;;;;;;6192376;28;20187;-62
2022/04/17 06:32:16;;;;;;;55.45;22.33;;;;;;;;;;6191911;28;20097;-60
2022/04/17 06:35:17;;;;;;;52.92;22.80;;;;;;;;;;6191865;28;20052;-61
2022/04/17 06:38:18;;;;;;;78.82;26.10;;;;;;;;;;6193410;28;20093;-61
2022/04/17 06:41:19;;;;;;;83.57;27.42;;;;;;;;;;6190209;28;20129;-60
2022/04/17 06:44:19;;;;;;;58.70;22.75;;;;;;;;;;6179618;28;20522;-60
2022/04/17 06:47:20;;;;;;;57.95;21.42;;;;;;;;;;6188310;28;20524;-60
2022/04/17 06:50:22;;;;;;;63.70;22.60;;;;;;;;;;6190048;28;20054;-60
2022/04/17 06:53:25;;;;;;;58.20;22.27;;;;;;;;;;6192948;28;20756;-60
2022/04/17 06:56:25;;;;;;;46.70;20.10;;;;;;;;;;6190215;28;20053;-59
2022/04/17 06:59:26;;;;;;;56.97;20.83;;;;;;;;;;6181234;28;20125;-58
2022/04/17 07:02:26;;;;;;;48.13;19.95;;;;;;;;;;6182941;28;20050;-58
2022/04/17 07:05:27;;;;;;;41.60;17.52;;;;;;;;;;6188674;28;20054;-58
2022/04/17 07:08:28;;;;;;;39.78;16.98;;;;;;;;;;6189662;28;20054;-58
2022/04/17 07:11:30;;;;;;;36.50;17.27;;;;;;;;;;6183462;28;20518;-58
2022/04/17 07:14:30;;;;;;;32.88;14.05;;;;;;;;;;6187364;28;20097;-60
2022/04/17 07:17:35;;;;;;;36.42;16.75;;;;;;;;;;6190101;28;20141;-59
2022/04/17 07:20:35;;;;;;;33.03;14.63;;;;;;;;;;6186918;28;20049;-62
2022/04/17 07:23:36;;;;;;;79.25;21.13;;;;;;;;;;6190270;28;20046;-62
2022/04/17 07:26:36;;;;;;;30.55;14.18;;;;;;;;;;6174366;28;20074;-60
2022/04/17 07:29:38;;;;;;;29.50;14.13;;;;;;;;;;6185370;28;20522;-60
2022/04/17 07:32:44;;;;;;;59.03;16.55;;;;;;;;;;6185538;28;20043;-60
2022/04/17 07:35:44;;;;;;;31.95;12.13;;;;;;;;;;6189560;28;20077;-60
2022/04/17 07:38:45;;;;;;;16.98;6.85;;;;;;;;;;6190812;28;20050;-60
2022/04/17 07:41:48;;;;;;;19.23;8.35;;;;;;;;;;6192227;28;20465;-61
2022/04/17 07:44:49;;;;;;;20.58;8.20;;;;;;;;;;6191353;28;20050;-60
2022/04/17 07:47:50;;;;;;;21.20;9.07;;;;;;;;;;6191738;28;20058;-60
2022/04/17 07:50:54;;;;;;;12.45;5.53;;;;;;;;;;6173305;28;20073;-61
2022/04/17 07:53:55;;;;;;;18.55;7.80;;;;;;;;;;6186734;28;20054;-61
2022/04/17 07:56:56;;;;;;;29.98;8.95;;;;;;;;;;6185473;28;20131;-61
2022/04/17 07:59:56;;;;;;;15.18;6.78;;;;;;;;;;6184884;28;20073;-60
2022/04/17 08:06:20;;;;;;;23.73;8.07;;;;;;;;;;6176684;28;20046;-61
2022/04/17 08:09:21;;;;;;;7.22;3.95;;;;;;;;;;6177056;28;20145;-61
2022/04/17 08:12:21;;;;;;;7.82;4.15;;;;;;;;;;6175505;28;20553;-60
2022/04/17 08:15:22;;;;;;;11.13;4.22;;;;;;;;;;6184403;28;20047;-60
2022/04/17 08:18:22;;;;;;;8.75;3.75;;;;;;;;;;6182762;28;20046;-60
2022/04/17 08:21:23;;;;;;;9.48;2.67;;;;;;;;;;6187018;28;20125;-60
2022/04/17 08:24:23;;;;;;;7.03;3.15;;;;;;;;;;6189927;28;20057;-60
2022/04/17 08:27:24;;;;;;;6.15;3.38;;;;;;;;;;6186529;28;20062;-60
2022/04/17 08:30:27;;;;;;;6.30;3.25;;;;;;;;;;6179777;28;20071;-60
2022/04/17 08:33:28;;;;;;;8.05;3.80;;;;;;;;;;6186679;28;20094;-60
2022/04/17 08:36:28;;;;;;;7.55;3.30;;;;;;;;;;6177468;28;20197;-60
2022/04/17 08:39:29;;;;;;;8.70;3.67;;;;;;;;;;6180486;28;20136;-60
2022/04/17 08:42:31;;;;;;;7.82;3.80;;;;;;;;;;6186600;28;20502;-61
2022/04/17 08:45:32;;;;;;;9.55;3.70;;;;;;;;;;6187771;28;20042;-60
2022/04/17 08:48:33;;;;;;;6.50;3.08;;;;;;;;;;6187903;28;20405;-60
2022/04/17 08:51:35;;;;;;;6.15;3.30;;;;;;;;;;6182651;28;20489;-60
2022/04/17 08:54:37;;;;;;;;;;;;;;;;;;6178991;28;20050;-60
2022/04/17 08:57:37;;;;;;;7.70;3.67;;;;;;;;;;6180734;28;19959;-60
2022/04/17 09:00:38;;;;;;;7.35;3.60;;;;;;;;;;6182389;28;20133;-60
2022/04/17 09:03:39;;;;;;;9.52;4.35;;;;;;;;;;6188226;28;20484;-60
2022/04/17 09:06:40;;;;;;;7.72;3.80;;;;;;;;;;6186985;28;20051;-60
2022/04/17 09:09:49;;;;;;;11.15;4.40;;;;;;;;;;6182519;28;20050;-60
2022/04/17 09:12:52;;;;;;;10.00;4.60;;;;;;;;;;6175213;28;20593;-60
2022/04/17 09:15:54;;;;;;;7.50;3.83;;;;;;;;;;6186813;28;20050;-60
2022/04/17 09:18:56;;;;;;;8.20;3.80;;;;;;;;;;6179702;28;20051;-60
2022/04/17 09:21:57;;;;;;;7.35;4.05;;;;;;;;;;6184888;28;20319;-60
2022/04/17 09:25:11;;;;;;;9.90;4.90;;;;;;;;;;6178174;28;20058;-60
2022/04/17 09:28:12;;;;;;;8.75;4.55;;;;;;;;;;6178598;28;20137;-60
2022/04/17 09:31:13;;;;;;;9.80;4.45;;;;;;;;;;6181557;28;20047;-61
2022/04/17 09:34:14;;;;;;;11.65;5.15;;;;;;;;;;6184029;28;20213;-60
2022/04/17 09:37:17;;;;;;;8.40;4.50;;;;;;;;;;6180156;28;20182;-60
2022/04/17 09:40:21;;;;;;;12.02;5.38;;;;;;;;;;6183956;28;20050;-60
2022/04/17 09:43:21;;;;;;;8.88;4.68;;;;;;;;;;6179421;28;20058;-60
2022/04/17 09:46:22;;;;;;;10.07;4.72;;;;;;;;;;6179877;28;20126;-60
2022/04/17 09:49:22;;;;;;;9.68;5.43;;;;;;;;;;6177486;28;20058;-60
2022/04/17 09:52:29;;;;;;;12.23;4.68;;;;;;;;;;6185556;28;20182;-60
2022/04/17 09:55:33;;;;;;;12.63;4.55;;;;;;;;;;6189438;28;20101;-60
2022/04/17 09:58:51;;;;;;;11.32;4.80;;;;;;;;;;6178219;28;20054;-60
2022/04/17 10:01:54;;;;;;;10.90;4.88;;;;;;;;;;6179315;28;20055;-60
2022/04/17 10:04:55;;;;;;;10.88;4.78;;;;;;;;;;6186055;28;20051;-60
2022/04/17 10:07:56;;;;;;;8.77;4.28;;;;;;;;;;6171886;28;20054;-61
2022/04/17 10:10:57;;;;;;;9.88;4.80;;;;;;;;;;6185052;28;20038;-60
2022/04/17 10:13:59;;;;;;;9.13;4.50;;;;;;;;;;6178416;28;20077;-59
2022/04/17 10:17:01;;;;;;;11.65;5.18;;;;;;;;;;6177451;28;20049;-61
2022/04/17 10:20:06;;;;;;;8.10;4.22;;;;;;;;;;6182371;28;20046;-61
2022/04/17 10:23:09;;;;;;;11.95;4.32;;;;;;;;;;6169697;28;20054;-61
2022/04/17 10:26:13;;;;;;;10.27;4.35;;;;;;;;;;6178681;28;20543;-61
2022/04/17 10:29:23;;;;;;;7.72;3.60;;;;;;;;;;6182562;28;20065;-60
2022/04/17 10:32:41;;;;;;;10.63;4.35;;;;;;;;;;6179637;28;20141;-60
2022/04/17 10:35:55;;;;;;;11.32;5.00;;;;;;;;;;6177335;28;20054;-60
2022/04/17 10:39:27;;;;;;;15.18;4.50;;;;;;;;;;6185143;28;20746;-60
2022/04/17 10:42:35;;;;;;;12.52;4.82;;;;;;;;;;6175170;28;20078;-60
2022/04/17 10:46:05;;;;;;;11.65;5.32;;;;;;;;;;6184066;28;20137;-60
2022/04/17 10:49:06;;;;;;;9.30;4.32;;;;;;;;;;6177601;28;20088;-61
2022/04/17 10:52:08;;;;;;;6.88;3.70;;;;;;;;;;6186714;28;20402;-60
2022/04/17 10:55:11;;;;;;;6.97;3.78;;;;;;;;;;6185532;28;20093;-60
2022/04/17 10:58:14;;;;;;;9.43;4.00;;;;;;;;;;6185630;28;20050;-60
2022/04/17 11:01:15;;;;;;;8.48;4.80;;;;;;;;;;6180959;28;20545;-60
2022/04/17 11:04:24;;;;;;;6.75;3.80;;;;;;;;;;6181312;28;20057;-60
2022/04/17 11:07:29;;;;;;;9.20;5.20;;;;;;;;;;6181737;28;20766;-60
2022/04/17 11:10:41;;;;;;;10.63;4.82;;;;;;;;;;6180863;28;20057;-61
2022/04/17 11:14:11;;;;;;;10.35;3.88;;;;;;;;;;6168684;28;20043;-61
2022/04/17 11:17:12;;;;;;;8.25;3.80;;;;;;;;;;6173178;28;20576;-61
2022/04/17 11:20:14;;;;;;;10.70;5.68;;;;;;;;;;6177113;28;20149;-61
2022/04/17 11:23:53;;;;;;;7.90;4.30;;;;;;;;;;6175988;28;20051;-60
2022/04/17 11:26:54;;;;;;;7.25;3.40;;;;;;;;;;6171922;28;20046;-60
2022/04/17 11:29:54;;;;;;;7.75;3.78;;;;;;;;;;6177375;28;20101;-59
2022/04/17 11:32:56;;;;;;;9.35;4.50;;;;;;;;;;6173530;28;20479;-59
2022/04/17 11:35:57;;;;;;;11.35;4.88;;;;;;;;;;6182414;28;20112;-60
2022/04/17 11:38:58;;;;;;;7.97;4.30;;;;;;;;;;6176638;28;20126;-60
2022/04/17 11:41:59;;;;;;;9.55;4.05;;;;;;;;;;6183346;28;20520;-60
2022/04/17 11:45:00;;;;;;;7.47;3.65;;;;;;;;;;6183377;28;20633;-60
2022/04/17 11:48:07;;;;;;;9.93;4.13;;;;;;;;;;6180725;28;20062;-59
2022/04/17 11:51:19;;;;;;;8.60;4.13;;;;;;;;;;6187801;28;20043;-59
2022/04/17 11:54:32;;;;;;;6.93;4.00;;;;;;;;;;6179477;28;20070;-61
2022/04/17 11:57:33;;;;;;;7.63;3.78;;;;;;;;;;6189448;28;20054;-60
2022/04/17 12:00:34;;;;;;;10.73;3.90;;;;;;;;;;6185011;28;20051;-60
2022/04/17 12:03:45;;;;;;;6.80;3.90;;;;;;;;;;6186099;28;20050;-60
2022/04/17 12:06:45;;;;;;;7.95;4.38;;;;;;;;;;6189165;28;20082;-60
2022/04/17 12:09:46;;;;;;;11.18;5.80;;;;;;;;;;6187482;28;20056;-60
2022/04/17 12:12:47;;;;;;;9.93;4.50;;;;;;;;;;6189132;28;20057;-60
2022/04/17 12:15:59;;;;;;;10.20;4.63;;;;;;;;;;6180595;28;20043;-60
2022/04/17 12:18:59;;;;;;;9.43;4.70;;;;;;;;;;6183213;28;20081;-60
2022/04/17 12:22:05;;;;;;;8.63;4.68;;;;;;;;;;6189742;28;20054;-59
2022/04/17 12:25:26;;;;;;;8.85;4.28;;;;;;;;;;6180595;28;20410;-60
2022/04/17 12:28:27;;;;;;;10.93;5.18;;;;;;;;;;6184374;28;20561;-60
2022/04/17 12:31:28;;;;;;;10.30;4.85;;;;;;;;;;6186484;28;20113;-60
2022/04/17 12:34:29;;;;;;;8.38;4.35;;;;;;;;;;6185027;28;20557;-60
2022/04/17 12:37:35;;;;;;;10.30;4.40;;;;;;;;;;6173866;28;20849;-60
2022/04/17 12:40:42;;;;;;;8.32;3.85;;;;;;;;;;6190321;28;20142;-60
2022/04/17 12:43:45;;;;;;;8.90;3.90;;;;;;;;;;6178796;28;20425;-60
2022/04/17 12:46:46;;;;;;;9.13;4.60;;;;;;;;;;6187273;28;20051;-60
2022/04/17 12:49:47;;;;;;;8.68;4.53;;;;;;;;;;6184172;28;20046;-60
2022/04/17 12:52:55;;;;;;;10.50;4.85;;;;;;;;;;6189602;28;20497;-60
2022/04/17 12:55:55;;;;;;;9.38;4.55;;;;;;;;;;6183445;28;20497;-60
2022/04/17 12:58:59;;;;;;;10.07;4.32;;;;;;;;;;6187111;28;20043;-60
2022/04/17 13:02:11;;;;;;;7.70;4.30;;;;;;;;;;6188047;28;20054;-60
2022/04/17 13:05:21;;;;;;;6.93;3.47;;;;;;;;;;6170429;28;20059;-60
2022/04/17 13:08:22;;;;;;;11.70;4.28;;;;;;;;;;6184432;28;20043;-60
2022/04/17 13:11:22;;;;;;;8.55;4.57;;;;;;;;;;6184555;28;20589;-60
2022/04/17 13:14:24;;;;;;;9.00;4.38;;;;;;;;;;6182215;28;20050;-60
2022/04/17 13:17:25;;;;;;;10.70;4.60;;;;;;;;;;6179649;28;20501;-60
2022/04/17 13:20:28;;;;;;;8.10;4.10;;;;;;;;;;6190211;28;20054;-60
2022/04/17 13:23:29;;;;;;;9.82;3.92;;;;;;;;;;6187341;28;20150;-61
2022/04/17 13:26:29;;;;;;;9.10;4.20;;;;;;;;;;6185722;28;20046;-60
2022/04/17 13:29:30;;;;;;;7.97;4.30;;;;;;;;;;6186206;28;20077;-60
2022/04/17 13:32:30;;;;;;;9.95;4.45;;;;;;;;;;6189082;28;20070;-60
2022/04/17 13:35:31;;;;;;;9.30;4.75;;;;;;;;;;6176005;28;20497;-61
2022/04/17 13:38:32;;;;;;;8.88;4.75;;;;;;;;;;6190901;28;20054;-59
2022/04/17 13:41:32;;;;;;;8.05;4.22;;;;;;;;;;6189934;28;20092;-60
2022/04/17 13:44:33;;;;;;;10.43;5.03;;;;;;;;;;6179722;28;20413;-60
2022/04/17 13:47:34;;;;;;;9.57;4.90;;;;;;;;;;6184043;28;20057;-60
2022/04/17 13:50:39;;;;;;;9.55;4.82;;;;;;;;;;6181496;28;20054;-61
2022/04/17 13:53:40;;;;;;;8.48;3.88;;;;;;;;;;6179034;28;20494;-61
2022/04/17 13:56:40;;;;;;;7.35;3.67;;;;;;;;;;6188429;28;20054;-61
2022/04/17 13:59:41;;;;;;;6.95;3.35;;;;;;;;;;6185742;28;20484;-61
2022/04/17 14:02:42;;;;;;;8.52;4.07;;;;;;;;;;6176695;28;20058;-61
2022/04/17 14:05:43;;;;;;;8.45;3.40;;;;;;;;;;6179608;28;20146;-60
2022/04/17 14:08:44;;;;;;;15.43;6.00;;;;;;;;;;6179669;28;20541;-61
2022/04/17 14:11:45;;;;;;;10.90;5.07;;;;;;;;;;6179366;28;20137;-60
2022/04/17 14:14:46;;;;;;;11.02;5.07;;;;;;;;;;6185138;28;20054;-60
2022/04/17 14:17:47;;;;;;;10.43;4.93;;;;;;;;;;6176850;28;20530;-60
2022/04/17 14:20:47;;;;;;;7.75;4.38;;;;;;;;;;6182899;28;20149;-60
2022/04/17 14:23:48;;;;;;;9.15;4.95;;;;;;;;;;6187634;28;20222;-60
2022/04/17 14:26:49;;;;;;;8.43;4.78;;;;;;;;;;6171499;28;20047;-60
2022/04/17 14:29:50;;;;;;;13.52;4.97;;;;;;;;;;6181468;28;20178;-60
2022/04/17 14:32:50;;;;;;;12.23;4.85;;;;;;;;;;6184795;28;20088;-61
2022/04/17 14:35:56;;;;;;;10.73;4.63;;;;;;;;;;6185372;28;20137;-60
2022/04/17 14:38:57;;;;;;;8.77;4.53;;;;;;;;;;6179696;28;20130;-60
2022/04/17 14:41:58;;;;;;;12.23;5.25;;;;;;;;;;6175513;28;20494;-61
2022/04/17 14:44:58;;;;;;;9.25;4.90;;;;;;;;;;6175124;28;20494;-60
2022/04/17 14:47:59;;;;;;;11.02;4.65;;;;;;;;;;6177817;28;20047;-60
2022/04/17 14:51:01;;;;;;;9.15;4.10;;;;;;;;;;6177494;28;20414;-60
2022/04/17 14:54:02;;;;;;;10.10;4.22;;;;;;;;;;6180837;28;20054;-60
2022/04/17 14:57:03;;;;;;;7.63;4.22;;;;;;;;;;6176911;28;20549;-60
2022/04/17 15:00:04;;;;;;;9.68;4.03;;;;;;;;;;6183943;28;20049;-60
2022/04/17 15:03:05;;;;;;;11.70;6.00;;;;;;;;;;6178500;28;20081;-60
2022/04/17 15:06:07;;;;;;;11.90;4.50;;;;;;;;;;6182316;28;20795;-60
2022/04/17 15:09:08;;;;;;;9.55;4.70;;;;;;;;;;6177960;28;20050;-60
2022/04/17 15:12:08;;;;;;;9.35;4.22;;;;;;;;;;6177765;28;20534;-60
2022/04/17 15:15:09;;;;;;;8.57;4.10;;;;;;;;;;6181787;28;20062;-60
2022/04/17 15:18:10;;;;;;;10.27;4.45;;;;;;;;;;6184810;28;20165;-60
2022/04/17 15:21:10;;;;;;;8.82;4.63;;;;;;;;;;6175904;28;20054;-59
2022/04/17 15:24:11;;;;;;;19.55;7.88;;;;;;;;;;6174396;28;20133;-60
2022/04/17 15:27:12;;;;;;;10.15;5.05;;;;;;;;;;6174131;28;20054;-60
2022/04/17 15:30:13;;;;;;;10.40;5.35;;;;;;;;;;6178138;28;20176;-59
2022/04/17 15:33:13;;;;;;;13.20;5.80;;;;;;;;;;6186742;28;20094;-60
2022/04/17 15:36:14;;;;;;;14.10;6.78;;;;;;;;;;6186643;28;20109;-60
2022/04/17 15:39:15;;;;;;;11.57;4.85;;;;;;;;;;6179006;28;20081;-60
2022/04/17 15:42:16;;;;;;;9.55;5.15;;;;;;;;;;6174074;28;20074;-59
2022/04/17 15:48:37;;;;;;;11.13;5.70;;;;;;;;;;6173176;28;20055;-59
2022/04/17 15:51:38;;;;;;;8.65;5.60;;;;;;;;;;6178286;28;20054;-60
2022/04/17 15:54:38;;;;;;;13.85;5.95;;;;;;;;;;6177548;28;20133;-60
2022/04/17 15:57:42;;;;;;;13.70;5.82;;;;;;;;;;6175891;28;20074;-59
2022/04/17 16:00:42;;;;;;;16.02;6.80;;;;;;;;;;6189819;28;20394;-60
2022/04/17 16:03:43;;;;;;;12.55;6.57;;;;;;;;;;6184522;28;20100;-60
2022/04/17 16:06:44;;;;;;;12.15;6.22;;;;;;;;;;6184136;28;20082;-60
2022/04/17 16:09:45;;;;;;;15.45;7.10;;;;;;;;;;6180351;28;20059;-60
2022/04/17 16:12:49;;;;;;;12.30;6.38;;;;;;;;;;6174450;28;20125;-59
2022/04/17 16:15:50;;;;;;;14.93;5.43;;;;;;;;;;6169639;28;20509;-60
2022/04/17 16:18:51;;;;;;;15.10;6.50;;;;;;;;;;6175842;28;20081;-59
2022/04/17 16:21:52;;;;;;;13.68;6.53;;;;;;;;;;6174766;28;20047;-60
2022/04/17 16:24:52;;;;;;;21.08;8.32;;;;;;;;;;6185756;28;20057;-59
2022/04/17 16:27:53;;;;;;;10.82;6.18;;;;;;;;;;6175009;28;20422;-59
2022/04/17 16:30:54;;;;;;;14.70;7.30;;;;;;;;;;6190247;28;20058;-60
2022/04/17 16:33:55;;;;;;;19.75;7.35;;;;;;;;;;6178355;28;20508;-60
2022/04/17 16:36:55;;;;;;;16.63;7.13;;;;;;;;;;6177288;28;20188;-60
2022/04/17 16:39:56;;;;;;;16.70;7.68;;;;;;;;;;6179782;28;20533;-60
2022/04/17 16:42:57;;;;;;;12.77;6.57;;;;;;;;;;6193260;28;20046;-60
2022/04/17 16:45:59;;;;;;;13.77;6.32;;;;;;;;;;6187639;28;20038;-60
2022/04/17 16:49:00;;;;;;;12.35;7.07;;;;;;;;;;6185527;28;20055;-60
2022/04/17 16:52:01;;;;;;;12.30;6.40;;;;;;;;;;6181243;28;20050;-60
2022/04/17 16:55:01;;;;;;;15.18;7.10;;;;;;;;;;6189116;28;20081;-61
2022/04/17 17:01:21;;;;;;;15.77;7.05;;;;;;;;;;6182146;28;20051;-59
2022/04/17 17:04:21;;;;;;;20.02;8.43;;;;;;;;;;6189394;28;20077;-60
2022/04/17 17:07:22;;;;;;;23.02;8.30;;;;;;;;;;6190181;28;20050;-61
2022/04/17 17:10:23;;;;;;;29.98;9.40;;;;;;;;;;6184409;28;20438;-65
2022/04/17 17:13:23;;;;;;;32.75;10.93;;;;;;;;;;6187962;28;20082;-60
2022/04/17 17:16:24;;;;;;;33.72;11.55;;;;;;;;;;6187475;28;20645;-61
2022/04/17 17:19:25;;;;;;;26.15;10.77;;;;;;;;;;6189418;28;20054;-60
2022/04/17 17:22:26;;;;;;;32.55;10.60;;;;;;;;;;6188729;28;20050;-61
2022/04/17 17:25:27;;;;;;;26.08;10.27;;;;;;;;;;6192245;28;20042;-59
2022/04/17 17:28:28;;;;;;;30.63;10.40;;;;;;;;;;6186406;28;20132;-63
2022/04/17 17:31:29;;;;;;;26.67;11.40;;;;;;;;;;6188968;28;20465;-61
2022/04/17 17:34:30;;;;;;;32.30;15.00;;;;;;;;;;6188255;28;20074;-62
2022/04/17 17:37:32;;;;;;;31.33;14.52;;;;;;;;;;6185531;28;20115;-61
2022/04/17 17:40:33;;;;;;;46.97;19.52;;;;;;;;;;6188578;28;20493;-60
2022/04/17 17:43:34;;;;;;;51.17;22.27;;;;;;;;;;6193894;28;20049;-59
2022/04/17 17:46:35;;;;;;;44.05;17.25;;;;;;;;;;6190438;28;20482;-61
2022/04/17 17:49:36;;;;;;;25.25;11.55;;;;;;;;;;6190987;28;20046;-60
2022/04/17 17:52:36;;;;;;;30.60;13.13;;;;;;;;;;6194356;28;20058;-60
2022/04/17 17:55:37;;;;;;;30.27;13.35;;;;;;;;;;6195815;28;20145;-60
2022/04/17 17:58:38;;;;;;;37.65;14.88;;;;;;;;;;6191746;28;20054;-61
2022/04/17 18:01:39;;;;;;;44.90;17.02;;;;;;;;;;6191448;28;20046;-60
2022/04/17 18:04:41;;;;;;;99.23;29.67;;;;;;;;;;6191876;28;20102;-60
2022/04/17 18:14:34;;;;;;;60.30;20.85;;;;;;;;;;6191966;28;20045;-60
2022/04/17 18:17:37;;;;;;;49.00;19.27;;;;;;;;;;6190273;28;20058;-60
2022/04/17 18:20:42;;;;;;;58.75;19.88;;;;;;;;;;6187124;28;20181;-60
2022/04/17 18:23:46;;;;;;;52.63;18.65;;;;;;;;;;6189604;28;20784;-60